sensor_id;sensor_type;location;lat;lon;timestamp;pressure;altitude;pressure_sealevel;temperature;humidity
65760;BME280;52496;51.082;5.066;2024-03-23T00:55:23;101034.50;;;7.18;100.00
65760;BME280;52496;51.082;5.066;2024-03-23T00:57:54;101041.50;;;7.19;100.00
65760;BME280;52496;51.082;5.066;2024-03-23T01:00:24;101025.03;;;7.16;100.00
65760;BME280;52496;51.082;5.066;2024-03-23T01:02:55;101019.84;;;7.14;100.00
65760;BME280;52496;51.082;5.066;2024-03-23T01:05:25;101018.34;;;7.11;100.00
65760;BME280;52496;51.082;5.066;2024-03-23T01:07:56;101004.06;;;7.12;100.00
65760;BME280;52496;51.082;5.066;2024-03-23T01:10:26;101013.84;;;7.12;100.00
65760;BME280;52496;51.082;5.066;2024-03-23T01:12:57;101011.50;;;7.09;100.00
65760;BME280;52496;51.082;5.066;2024-03-23T01:15:27;101009.00;;;7.07;100.00
65760;BME280;52496;51.082;5.066;2024-03-23T01:17:58;101014.16;;;7.09;100.00
65760;BME280;52496;51.082;5.066;2024-03-23T01:20:28;101013.50;;;7.07;100.00
65760;BME280;52496;51.082;5.066;2024-03-23T01:22:59;101002.03;;;7.06;100.00
65760;BME280;52496;51.082;5.066;2024-03-23T01:25:29;101015.47;;;7.05;100.00
65760;BME280;52496;51.082;5.066;2024-03-23T01:28:00;101013.81;;;7.04;100.00
65760;BME280;52496;51.082;5.066;2024-03-23T01:30:30;101000.53;;;7.04;100.00
65760;BME280;52496;51.082;5.066;2024-03-23T01:33:01;100990.22;;;7.01;100.00
65760;BME280;52496;51.082;5.066;2024-03-23T01:35:35;100984.50;;;6.96;100.00
65760;BME280;52496;51.082;5.066;2024-03-23T01:38:05;100979.50;;;6.93;100.00
65760;BME280;52496;51.082;5.066;2024-03-23T01:40:36;100977.16;;;6.89;100.00
65760;BME280;52496;51.082;5.066;2024-03-23T01:43:09;100980.81;;;6.88;100.00
65760;BME280;52496;51.082;5.066;2024-03-23T01:45:39;100988.94;;;6.87;100.00
65760;BME280;52496;51.082;5.066;2024-03-23T01:48:10;101005.06;;;6.85;100.00
65760;BME280;52496;51.082;5.066;2024-03-23T01:50:42;101023.97;;;6.82;100.00
65760;BME280;52496;51.082;5.066;2024-03-23T01:53:14;101025.25;;;6.78;100.00
65760;BME280;52496;51.082;5.066;2024-03-23T01:55:47;101019.28;;;6.76;100.00
65760;BME280;52496;51.082;5.066;2024-03-23T01:58:18;101026.25;;;6.77;100.00
65760;BME280;52496;51.082;5.066;2024-03-23T02:00:49;101035.91;;;6.78;100.00
65760;BME280;52496;51.082;5.066;2024-03-23T02:03:26;101029.94;;;6.76;100.00
65760;BME280;52496;51.082;5.066;2024-03-23T02:05:57;101017.59;;;6.75;100.00
65760;BME280;52496;51.082;5.066;2024-03-23T02:08:28;101017.78;;;6.74;100.00
65760;BME280;52496;51.082;5.066;2024-03-23T02:10:59;101015.13;;;6.74;100.00
65760;BME280;52496;51.082;5.066;2024-03-23T02:13:30;101003.66;;;6.73;100.00
65760;BME280;52496;51.082;5.066;2024-03-23T02:16:02;100999.31;;;6.72;100.00
65760;BME280;52496;51.082;5.066;2024-03-23T02:18:33;101003.28;;;6.68;100.00
65760;BME280;52496;51.082;5.066;2024-03-23T02:21:03;100992.66;;;6.68;100.00
65760;BME280;52496;51.082;5.066;2024-03-23T02:23:34;100986.63;;;6.66;100.00
65760;BME280;52496;51.082;5.066;2024-03-23T02:26:05;100998.28;;;6.65;100.00
65760;BME280;52496;51.082;5.066;2024-03-23T02:28:35;100986.94;;;6.63;100.00
65760;BME280;52496;51.082;5.066;2024-03-23T02:31:06;100981.81;;;6.61;100.00
65760;BME280;52496;51.082;5.066;2024-03-23T02:33:36;100983.94;;;6.58;100.00
65760;BME280;52496;51.082;5.066;2024-03-23T02:36:08;100985.91;;;6.56;100.00
65760;BME280;52496;51.082;5.066;2024-03-23T02:38:38;100993.19;;;6.54;100.00
65760;BME280;52496;51.082;5.066;2024-03-23T02:41:09;100984.56;;;6.52;100.00
65760;BME280;52496;51.082;5.066;2024-03-23T02:43:40;100986.91;;;6.55;100.00
65760;BME280;52496;51.082;5.066;2024-03-23T02:46:10;100986.09;;;6.54;100.00
65760;BME280;52496;51.082;5.066;2024-03-23T02:48:40;100994.19;;;6.53;100.00
65760;BME280;52496;51.082;5.066;2024-03-23T02:51:11;100999.66;;;6.51;100.00
65760;BME280;52496;51.082;5.066;2024-03-23T02:53:41;101006.97;;;6.49;100.00
65760;BME280;52496;51.082;5.066;2024-03-23T02:56:12;101009.44;;;6.51;100.00
65760;BME280;52496;51.082;5.066;2024-03-23T02:58:46;101008.47;;;6.52;100.00
65760;BME280;52496;51.082;5.066;2024-03-23T03:01:16;101004.69;;;6.54;100.00
65760;BME280;52496;51.082;5.066;2024-03-23T03:03:47;101001.72;;;6.57;100.00
65760;BME280;52496;51.082;5.066;2024-03-23T03:06:27;101010.34;;;6.59;100.00
65760;BME280;52496;51.082;5.066;2024-03-23T03:08:58;101015.97;;;6.56;100.00
65760;BME280;52496;51.082;5.066;2024-03-23T03:11:28;101011.28;;;6.50;100.00
65760;BME280;52496;51.082;5.066;2024-03-23T03:13:59;101002.78;;;6.47;100.00
65760;BME280;52496;51.082;5.066;2024-03-23T03:16:30;101005.06;;;6.41;100.00
65760;BME280;52496;51.082;5.066;2024-03-23T03:19:00;101004.53;;;6.38;100.00
65760;BME280;52496;51.082;5.066;2024-03-23T03:21:31;101002.66;;;6.30;100.00
65760;BME280;52496;51.082;5.066;2024-03-23T03:24:03;101000.59;;;6.24;100.00
65760;BME280;52496;51.082;5.066;2024-03-23T03:26:33;101006.34;;;6.19;100.00
65760;BME280;52496;51.082;5.066;2024-03-23T03:29:04;100994.38;;;6.15;100.00
65760;BME280;52496;51.082;5.066;2024-03-23T03:31:34;101001.13;;;6.10;100.00
65760;BME280;52496;51.082;5.066;2024-03-23T03:34:05;101005.09;;;6.06;100.00
65760;BME280;52496;51.082;5.066;2024-03-23T03:36:35;100991.41;;;6.01;100.00
65760;BME280;52496;51.082;5.066;2024-03-23T03:39:06;100988.38;;;5.95;100.00
65760;BME280;52496;51.082;5.066;2024-03-23T03:41:37;100986.97;;;5.91;100.00
65760;BME280;52496;51.082;5.066;2024-03-23T03:44:07;100986.88;;;5.83;100.00
65760;BME280;52496;51.082;5.066;2024-03-23T03:46:38;100990.13;;;5.77;100.00
65760;BME280;52496;51.082;5.066;2024-03-23T03:49:08;100985.44;;;5.71;100.00
65760;BME280;52496;51.082;5.066;2024-03-23T03:51:39;100989.66;;;5.64;100.00
65760;BME280;52496;51.082;5.066;2024-03-23T03:54:09;100984.97;;;5.58;100.00
65760;BME280;52496;51.082;5.066;2024-03-23T03:56:40;100987.22;;;5.52;100.00
65760;BME280;52496;51.082;5.066;2024-03-23T03:59:10;100985.16;;;5.46;100.00
65760;BME280;52496;51.082;5.066;2024-03-23T04:01:40;100977.78;;;5.40;100.00
65760;BME280;52496;51.082;5.066;2024-03-23T04:04:11;100978.66;;;5.31;100.00
65760;BME280;52496;51.082;5.066;2024-03-23T04:06:43;100979.25;;;5.25;100.00
65760;BME280;52496;51.082;5.066;2024-03-23T04:09:14;100979.28;;;5.15;100.00
65760;BME280;52496;51.082;5.066;2024-03-23T04:11:45;100984.34;;;5.09;100.00
65760;BME280;52496;51.082;5.066;2024-03-23T04:14:15;100988.53;;;5.01;100.00
65760;BME280;52496;51.082;5.066;2024-03-23T04:16:46;100991.94;;;4.94;100.00
65760;BME280;52496;51.082;5.066;2024-03-23T04:19:16;100990.69;;;4.88;100.00
65760;BME280;52496;51.082;5.066;2024-03-23T04:21:47;100981.66;;;4.81;100.00
65760;BME280;52496;51.082;5.066;2024-03-23T04:24:17;100985.53;;;4.77;100.00
65760;BME280;52496;51.082;5.066;2024-03-23T04:26:50;100985.44;;;4.69;100.00
65760;BME280;52496;51.082;5.066;2024-03-23T04:29:20;100982.66;;;4.60;100.00
65760;BME280;52496;51.082;5.066;2024-03-23T04:31:51;100984.06;;;4.55;100.00
65760;BME280;52496;51.082;5.066;2024-03-23T04:34:21;100981.00;;;4.50;100.00
65760;BME280;52496;51.082;5.066;2024-03-23T04:36:53;100982.38;;;4.44;100.00
65760;BME280;52496;51.082;5.066;2024-03-23T04:39:23;100989.94;;;4.39;100.00
65760;BME280;52496;51.082;5.066;2024-03-23T04:41:54;100993.16;;;4.33;100.00
65760;BME280;52496;51.082;5.066;2024-03-23T04:44:24;100988.41;;;4.27;100.00
65760;BME280;52496;51.082;5.066;2024-03-23T04:46:55;100990.63;;;4.22;100.00
65760;BME280;52496;51.082;5.066;2024-03-23T04:49:25;100979.63;;;4.17;100.00
65760;BME280;52496;51.082;5.066;2024-03-23T04:51:56;100988.69;;;4.14;100.00
65760;BME280;52496;51.082;5.066;2024-03-23T04:54:26;100978.38;;;4.11;100.00
65760;BME280;52496;51.082;5.066;2024-03-23T04:56:59;100979.50;;;4.08;100.00
65760;BME280;52496;51.082;5.066;2024-03-23T04:59:29;100974.31;;;4.07;100.00
65760;BME280;52496;51.082;5.066;2024-03-23T05:02:00;100975.31;;;4.06;100.00
65760;BME280;52496;51.082;5.066;2024-03-23T05:04:30;100976.97;;;4.07;100.00
65760;BME280;52496;51.082;5.066;2024-03-23T05:07:03;100984.78;;;4.08;100.00
65760;BME280;52496;51.082;5.066;2024-03-23T05:09:34;100984.50;;;4.11;100.00
65760;BME280;52496;51.082;5.066;2024-03-23T05:12:05;100988.25;;;4.19;100.00
65760;BME280;52496;51.082;5.066;2024-03-23T05:14:35;100988.41;;;4.27;100.00
65760;BME280;52496;51.082;5.066;2024-03-23T05:17:06;101003.44;;;4.36;100.00
65760;BME280;52496;51.082;5.066;2024-03-23T05:19:36;100993.97;;;4.43;100.00
65760;BME280;52496;51.082;5.066;2024-03-23T05:22:07;100984.47;;;4.50;100.00
65760;BME280;52496;51.082;5.066;2024-03-23T05:24:37;100986.28;;;4.59;100.00
65760;BME280;52496;51.082;5.066;2024-03-23T05:27:08;100990.03;;;4.67;100.00
65760;BME280;52496;51.082;5.066;2024-03-23T05:29:38;100995.59;;;4.73;100.00
65760;BME280;52496;51.082;5.066;2024-03-23T05:32:08;101010.63;;;4.82;100.00
65760;BME280;52496;51.082;5.066;2024-03-23T05:34:39;101013.69;;;4.88;100.00
65760;BME280;52496;51.082;5.066;2024-03-23T05:37:09;101013.97;;;4.94;100.00
65760;BME280;52496;51.082;5.066;2024-03-23T05:39:40;101013.38;;;5.00;100.00
65760;BME280;52496;51.082;5.066;2024-03-23T05:42:10;101005.16;;;5.03;100.00
65760;BME280;52496;51.082;5.066;2024-03-23T05:44:40;101006.69;;;5.06;100.00
65760;BME280;52496;51.082;5.066;2024-03-23T05:47:11;100992.44;;;5.07;100.00
65760;BME280;52496;51.082;5.066;2024-03-23T05:49:46;100998.56;;;5.07;100.00
65760;BME280;52496;51.082;5.066;2024-03-23T05:52:17;100995.25;;;5.05;100.00
65760;BME280;52496;51.082;5.066;2024-03-23T05:54:47;100991.06;;;5.03;100.00
65760;BME280;52496;51.082;5.066;2024-03-23T05:57:17;100995.81;;;4.99;100.00
65760;BME280;52496;51.082;5.066;2024-03-23T05:59:49;100994.72;;;4.92;100.00
65760;BME280;52496;51.082;5.066;2024-03-23T06:02:19;100993.47;;;4.87;100.00
65760;BME280;52496;51.082;5.066;2024-03-23T06:04:49;101007.00;;;4.83;100.00
65760;BME280;52496;51.082;5.066;2024-03-23T06:07:20;101004.09;;;4.77;100.00
65760;BME280;52496;51.082;5.066;2024-03-23T06:09:51;101016.50;;;4.76;100.00
65760;BME280;52496;51.082;5.066;2024-03-23T06:12:21;101003.13;;;4.78;100.00
65760;BME280;52496;51.082;5.066;2024-03-23T06:14:52;101018.75;;;4.81;100.00
65760;BME280;52496;51.082;5.066;2024-03-23T06:17:22;101013.16;;;4.84;100.00
65760;BME280;52496;51.082;5.066;2024-03-23T06:19:53;101006.72;;;4.87;100.00
65760;BME280;52496;51.082;5.066;2024-03-23T06:22:23;101003.22;;;4.86;100.00
65760;BME280;52496;51.082;5.066;2024-03-23T06:24:54;101010.06;;;4.89;100.00
65760;BME280;52496;51.082;5.066;2024-03-23T06:27:24;101013.97;;;4.94;100.00
65760;BME280;52496;51.082;5.066;2024-03-23T06:29:55;101013.94;;;5.04;100.00
65760;BME280;52496;51.082;5.066;2024-03-23T06:32:26;101013.31;;;5.20;100.00
65760;BME280;52496;51.082;5.066;2024-03-23T06:34:56;101006.41;;;5.37;100.00
65760;BME280;52496;51.082;5.066;2024-03-23T06:37:27;101003.66;;;5.56;100.00
65760;BME280;52496;51.082;5.066;2024-03-23T06:39:58;101007.34;;;5.73;100.00
65760;BME280;52496;51.082;5.066;2024-03-23T06:42:29;101014.94;;;5.86;100.00
65760;BME280;52496;51.082;5.066;2024-03-23T06:44:59;101011.44;;;5.95;100.00
65760;BME280;52496;51.082;5.066;2024-03-23T06:47:30;101014.31;;;6.02;100.00
65760;BME280;52496;51.082;5.066;2024-03-23T06:50:04;101015.53;;;6.07;100.00
65760;BME280;52496;51.082;5.066;2024-03-23T06:52:34;101010.44;;;6.14;100.00
65760;BME280;52496;51.082;5.066;2024-03-23T06:55:05;101014.19;;;6.21;100.00
65760;BME280;52496;51.082;5.066;2024-03-23T06:57:36;101016.06;;;6.29;100.00
65760;BME280;52496;51.082;5.066;2024-03-23T07:00:07;101021.97;;;6.40;100.00
65760;BME280;52496;51.082;5.066;2024-03-23T07:02:40;101025.38;;;6.51;100.00
65760;BME280;52496;51.082;5.066;2024-03-23T07:05:11;101024.47;;;6.60;100.00
65760;BME280;52496;51.082;5.066;2024-03-23T07:07:41;101027.50;;;6.65;100.00
65760;BME280;52496;51.082;5.066;2024-03-23T07:10:12;101031.81;;;6.66;100.00
65760;BME280;52496;51.082;5.066;2024-03-23T07:12:42;101036.16;;;6.67;100.00
65760;BME280;52496;51.082;5.066;2024-03-23T07:15:13;101030.84;;;6.67;100.00
65760;BME280;52496;51.082;5.066;2024-03-23T07:17:47;101033.41;;;6.77;100.00
65760;BME280;52496;51.082;5.066;2024-03-23T07:20:17;101020.84;;;6.87;100.00
65760;BME280;52496;51.082;5.066;2024-03-23T07:22:49;101026.38;;;6.94;100.00
65760;BME280;52496;51.082;5.066;2024-03-23T07:25:20;101022.75;;;6.95;100.00
65760;BME280;52496;51.082;5.066;2024-03-23T07:27:53;101026.38;;;6.94;100.00
65760;BME280;52496;51.082;5.066;2024-03-23T07:30:23;101029.34;;;6.90;100.00
65760;BME280;52496;51.082;5.066;2024-03-23T07:32:54;101037.78;;;6.86;100.00
65760;BME280;52496;51.082;5.066;2024-03-23T07:35:24;101041.28;;;6.86;100.00
65760;BME280;52496;51.082;5.066;2024-03-23T07:37:55;101031.69;;;6.94;100.00
65760;BME280;52496;51.082;5.066;2024-03-23T07:40:25;101042.56;;;7.00;100.00
65760;BME280;52496;51.082;5.066;2024-03-23T07:42:56;101031.81;;;7.10;100.00
65760;BME280;52496;51.082;5.066;2024-03-23T07:45:26;101031.69;;;7.20;100.00
65760;BME280;52496;51.082;5.066;2024-03-23T07:47:57;101033.25;;;7.30;100.00
65760;BME280;52496;51.082;5.066;2024-03-23T07:50:27;101033.97;;;7.41;100.00
65760;BME280;52496;51.082;5.066;2024-03-23T07:52:58;101035.34;;;7.53;100.00
65760;BME280;52496;51.082;5.066;2024-03-23T07:55:28;101041.38;;;7.63;100.00
65760;BME280;52496;51.082;5.066;2024-03-23T07:57:59;101044.75;;;7.73;100.00
65760;BME280;52496;51.082;5.066;2024-03-23T08:00:29;101037.13;;;7.87;100.00
65760;BME280;52496;51.082;5.066;2024-03-23T08:03:00;101038.19;;;8.02;100.00
65760;BME280;52496;51.082;5.066;2024-03-23T08:05:30;101043.22;;;8.30;100.00
65760;BME280;52496;51.082;5.066;2024-03-23T08:08:01;101045.94;;;8.46;100.00
65760;BME280;52496;51.082;5.066;2024-03-23T08:10:31;101035.47;;;8.53;100.00
65760;BME280;52496;51.082;5.066;2024-03-23T08:13:02;101051.94;;;8.48;100.00
65760;BME280;52496;51.082;5.066;2024-03-23T08:15:32;101036.38;;;8.27;100.00
65760;BME280;52496;51.082;5.066;2024-03-23T08:18:03;101036.53;;;8.01;100.00
65760;BME280;52496;51.082;5.066;2024-03-23T08:20:34;101036.13;;;7.88;100.00
65760;BME280;52496;51.082;5.066;2024-03-23T08:23:06;101036.13;;;7.88;100.00
65760;BME280;52496;51.082;5.066;2024-03-23T08:25:36;101035.47;;;7.94;100.00
65760;BME280;52496;51.082;5.066;2024-03-23T08:28:07;101035.69;;;8.00;100.00
65760;BME280;52496;51.082;5.066;2024-03-23T08:30:37;101036.84;;;8.06;100.00
65760;BME280;52496;51.082;5.066;2024-03-23T08:33:08;101043.56;;;8.26;100.00
65760;BME280;52496;51.082;5.066;2024-03-23T08:35:38;101041.94;;;8.50;100.00
65760;BME280;52496;51.082;5.066;2024-03-23T08:38:09;101035.44;;;8.61;100.00
65760;BME280;52496;51.082;5.066;2024-03-23T08:40:40;101040.28;;;8.65;100.00
65760;BME280;52496;51.082;5.066;2024-03-23T08:43:10;101044.47;;;8.68;100.00
65760;BME280;52496;51.082;5.066;2024-03-23T08:45:41;101034.78;;;8.59;100.00
65760;BME280;52496;51.082;5.066;2024-03-23T08:48:11;101030.13;;;8.53;100.00
65760;BME280;52496;51.082;5.066;2024-03-23T08:50:42;101030.28;;;8.59;100.00
65760;BME280;52496;51.082;5.066;2024-03-23T08:53:13;101030.63;;;8.81;100.00
65760;BME280;52496;51.082;5.066;2024-03-23T08:55:53;101030.59;;;8.97;100.00
65760;BME280;52496;51.082;5.066;2024-03-23T08:58:25;101029.56;;;9.14;100.00
65760;BME280;52496;51.082;5.066;2024-03-23T09:01:02;101041.19;;;9.38;100.00
65760;BME280;52496;51.082;5.066;2024-03-23T09:03:33;101036.38;;;9.64;100.00
65760;BME280;52496;51.082;5.066;2024-03-23T09:06:08;101025.16;;;9.77;100.00
65760;BME280;52496;51.082;5.066;2024-03-23T09:08:39;101030.34;;;9.71;100.00
65760;BME280;52496;51.082;5.066;2024-03-23T09:11:12;101034.25;;;9.60;100.00
65760;BME280;52496;51.082;5.066;2024-03-23T09:13:43;101033.47;;;9.43;100.00
65760;BME280;52496;51.082;5.066;2024-03-23T09:16:13;101021.31;;;9.40;100.00
65760;BME280;52496;51.082;5.066;2024-03-23T09:18:44;101031.03;;;9.64;100.00
65760;BME280;52496;51.082;5.066;2024-03-23T09:21:15;101022.34;;;9.71;100.00
65760;BME280;52496;51.082;5.066;2024-03-23T09:23:46;101035.41;;;9.65;100.00
65760;BME280;52496;51.082;5.066;2024-03-23T09:26:16;101021.34;;;9.72;100.00
65760;BME280;52496;51.082;5.066;2024-03-23T09:28:50;101018.94;;;9.85;100.00
65760;BME280;52496;51.082;5.066;2024-03-23T09:31:21;101024.78;;;10.11;100.00
65760;BME280;52496;51.082;5.066;2024-03-23T09:33:52;101004.56;;;10.40;100.00
65760;BME280;52496;51.082;5.066;2024-03-23T09:36:23;101004.34;;;10.65;100.00
65760;BME280;52496;51.082;5.066;2024-03-23T09:38:54;101006.06;;;10.81;100.00
65760;BME280;52496;51.082;5.066;2024-03-23T09:41:24;101010.06;;;10.99;100.00
65760;BME280;52496;51.082;5.066;2024-03-23T09:43:55;101001.47;;;11.04;100.00
65760;BME280;52496;51.082;5.066;2024-03-23T09:46:25;101018.19;;;11.21;100.00
65760;BME280;52496;51.082;5.066;2024-03-23T09:48:56;100992.53;;;11.41;100.00
65760;BME280;52496;51.082;5.066;2024-03-23T09:51:27;100995.91;;;11.65;100.00
65760;BME280;52496;51.082;5.066;2024-03-23T09:53:58;101003.34;;;11.84;100.00
65760;BME280;52496;51.082;5.066;2024-03-23T09:56:28;101002.25;;;11.93;100.00
65760;BME280;52496;51.082;5.066;2024-03-23T09:59:02;101004.13;;;11.78;100.00
65760;BME280;52496;51.082;5.066;2024-03-23T10:01:33;100997.72;;;11.79;100.00
65760;BME280;52496;51.082;5.066;2024-03-23T10:04:04;101011.56;;;11.83;100.00
65760;BME280;52496;51.082;5.066;2024-03-23T10:06:35;101009.09;;;11.81;100.00
65760;BME280;52496;51.082;5.066;2024-03-23T10:09:16;101003.56;;;11.68;100.00
65760;BME280;52496;51.082;5.066;2024-03-23T10:11:51;101001.91;;;11.67;99.02
65760;BME280;52496;51.082;5.066;2024-03-23T10:14:31;101006.09;;;11.55;100.00
65760;BME280;52496;51.082;5.066;2024-03-23T10:17:22;101015.31;;;11.67;100.00
65760;BME280;52496;51.082;5.066;2024-03-23T10:19:56;101023.34;;;11.37;100.00
65760;BME280;52496;51.082;5.066;2024-03-23T10:22:27;101103.59;;;10.16;100.00
65760;BME280;52496;51.082;5.066;2024-03-23T10:25:10;101105.78;;;8.68;100.00
65760;BME280;52496;51.082;5.066;2024-03-23T10:27:41;101071.78;;;7.61;100.00
65760;BME280;52496;51.082;5.066;2024-03-23T10:30:15;101083.94;;;7.03;100.00
65760;BME280;52496;51.082;5.066;2024-03-23T10:32:46;101065.44;;;6.75;100.00
65760;BME280;52496;51.082;5.066;2024-03-23T10:35:20;101057.03;;;6.62;100.00
65760;BME280;52496;51.082;5.066;2024-03-23T10:37:53;101070.31;;;6.62;100.00
65760;BME280;52496;51.082;5.066;2024-03-23T10:40:26;101053.78;;;6.68;100.00
65760;BME280;52496;51.082;5.066;2024-03-23T10:42:58;101047.91;;;6.82;100.00
65760;BME280;52496;51.082;5.066;2024-03-23T10:45:30;101052.03;;;7.03;100.00
65760;BME280;52496;51.082;5.066;2024-03-23T10:48:01;101037.84;;;7.20;100.00
65760;BME280;52496;51.082;5.066;2024-03-23T10:50:32;101051.66;;;7.24;100.00
65760;BME280;52496;51.082;5.066;2024-03-23T10:53:03;101040.03;;;7.25;100.00
65760;BME280;52496;51.082;5.066;2024-03-23T10:55:34;101040.50;;;7.20;100.00
65760;BME280;52496;51.082;5.066;2024-03-23T10:58:05;101038.00;;;7.19;100.00
65760;BME280;52496;51.082;5.066;2024-03-23T11:00:37;101025.84;;;7.16;100.00
65760;BME280;52496;51.082;5.066;2024-03-23T11:03:40;101037.84;;;7.20;100.00
65760;BME280;52496;51.082;5.066;2024-03-23T11:14:59;101030.72;;;7.55;100.00
65760;BME280;52496;51.082;5.066;2024-03-23T11:17:31;101036.19;;;8.04;100.00
65760;BME280;52496;51.082;5.066;2024-03-23T11:20:03;101032.13;;;8.50;100.00
65760;BME280;52496;51.082;5.066;2024-03-23T11:25:22;101017.56;;;9.10;100.00
65760;BME280;52496;51.082;5.066;2024-03-23T11:27:57;101013.00;;;9.75;100.00
65760;BME280;52496;51.082;5.066;2024-03-23T11:30:28;101004.94;;;10.37;100.00
65760;BME280;52496;51.082;5.066;2024-03-23T11:33:02;101020.13;;;10.60;100.00
65760;BME280;52496;51.082;5.066;2024-03-23T11:35:39;101003.97;;;10.53;100.00
65760;BME280;52496;51.082;5.066;2024-03-23T11:38:15;100997.91;;;10.59;100.00
65760;BME280;52496;51.082;5.066;2024-03-23T11:40:47;100990.66;;;10.83;100.00
65760;BME280;52496;51.082;5.066;2024-03-23T11:43:19;100985.78;;;11.31;100.00
65760;BME280;52496;51.082;5.066;2024-03-23T11:45:52;100993.16;;;11.29;100.00
65760;BME280;52496;51.082;5.066;2024-03-23T11:48:23;100988.66;;;10.99;100.00
65760;BME280;52496;51.082;5.066;2024-03-23T11:50:56;100989.69;;;10.61;100.00
65760;BME280;52496;51.082;5.066;2024-03-23T11:53:27;100987.78;;;10.69;100.00
65760;BME280;52496;51.082;5.066;2024-03-23T11:55:59;100990.75;;;11.04;100.00
65760;BME280;52496;51.082;5.066;2024-03-23T11:58:31;100980.78;;;11.57;100.00
65760;BME280;52496;51.082;5.066;2024-03-23T12:01:03;100976.09;;;12.17;100.00
65760;BME280;52496;51.082;5.066;2024-03-23T12:03:35;100972.34;;;12.61;100.00
65760;BME280;52496;51.082;5.066;2024-03-23T12:06:06;100970.44;;;12.83;100.00
65760;BME280;52496;51.082;5.066;2024-03-23T12:08:37;100967.66;;;12.98;100.00
65760;BME280;52496;51.082;5.066;2024-03-23T12:11:16;100963.22;;;13.12;100.00
65760;BME280;52496;51.082;5.066;2024-03-23T12:13:47;100959.00;;;13.30;100.00
65760;BME280;52496;51.082;5.066;2024-03-23T12:16:20;100947.72;;;13.48;96.85
65760;BME280;52496;51.082;5.066;2024-03-23T12:18:51;100943.72;;;13.31;99.66
65760;BME280;52496;51.082;5.066;2024-03-23T12:21:21;100960.53;;;12.83;99.53
65760;BME280;52496;51.082;5.066;2024-03-23T12:23:53;100954.38;;;12.33;100.00
65760;BME280;52496;51.082;5.066;2024-03-23T12:26:23;100970.78;;;11.66;96.89
65760;BME280;52496;51.082;5.066;2024-03-23T12:28:54;100976.09;;;11.00;100.00
65760;BME280;52496;51.082;5.066;2024-03-23T12:31:24;100967.84;;;10.57;100.00
65760;BME280;52496;51.082;5.066;2024-03-23T12:33:55;100974.75;;;10.28;100.00
65760;BME280;52496;51.082;5.066;2024-03-23T12:36:26;100995.34;;;9.97;100.00
65760;BME280;52496;51.082;5.066;2024-03-23T12:38:56;101003.84;;;9.61;100.00
65760;BME280;52496;51.082;5.066;2024-03-23T12:41:27;101000.75;;;9.02;100.00
65760;BME280;52496;51.082;5.066;2024-03-23T12:43:57;100981.28;;;8.36;100.00
65760;BME280;52496;51.082;5.066;2024-03-23T12:46:27;100976.63;;;8.30;100.00
65760;BME280;52496;51.082;5.066;2024-03-23T12:48:58;100971.28;;;8.38;100.00
65760;BME280;52496;51.082;5.066;2024-03-23T12:51:28;100957.97;;;8.70;100.00
65760;BME280;52496;51.082;5.066;2024-03-23T12:53:59;100946.06;;;9.37;100.00
65760;BME280;52496;51.082;5.066;2024-03-23T12:56:29;100937.69;;;10.02;100.00
65760;BME280;52496;51.082;5.066;2024-03-23T12:59:00;100940.28;;;10.56;100.00
65760;BME280;52496;51.082;5.066;2024-03-23T13:01:31;100940.94;;;11.03;100.00
65760;BME280;52496;51.082;5.066;2024-03-23T13:04:01;100933.63;;;11.41;100.00
65760;BME280;52496;51.082;5.066;2024-03-23T13:06:32;100942.78;;;11.32;100.00
65760;BME280;52496;51.082;5.066;2024-03-23T13:09:04;100954.25;;;10.96;100.00
65760;BME280;52496;51.082;5.066;2024-03-23T13:11:35;100949.78;;;10.59;100.00
65760;BME280;52496;51.082;5.066;2024-03-23T13:14:06;100946.00;;;10.07;100.00
65760;BME280;52496;51.082;5.066;2024-03-23T13:16:36;100959.38;;;9.53;100.00
65760;BME280;52496;51.082;5.066;2024-03-23T13:19:07;100946.72;;;9.00;100.00
65760;BME280;52496;51.082;5.066;2024-03-23T13:21:37;100944.66;;;8.54;100.00
65760;BME280;52496;51.082;5.066;2024-03-23T13:24:09;100940.47;;;8.27;100.00
65760;BME280;52496;51.082;5.066;2024-03-23T13:26:39;100941.28;;;8.03;100.00
65760;BME280;52496;51.082;5.066;2024-03-23T13:29:10;100928.97;;;7.94;100.00
65760;BME280;52496;51.082;5.066;2024-03-23T13:31:41;100923.66;;;7.94;100.00
65760;BME280;52496;51.082;5.066;2024-03-23T13:34:11;100913.19;;;8.00;100.00
65760;BME280;52496;51.082;5.066;2024-03-23T13:36:46;100909.50;;;8.18;100.00
65760;BME280;52496;51.082;5.066;2024-03-23T13:39:17;100918.66;;;8.56;100.00
65760;BME280;52496;51.082;5.066;2024-03-23T13:41:48;100909.84;;;9.03;100.00
65760;BME280;52496;51.082;5.066;2024-03-23T13:44:18;100904.03;;;9.39;100.00
65760;BME280;52496;51.082;5.066;2024-03-23T13:46:48;100904.56;;;9.65;100.00
65760;BME280;52496;51.082;5.066;2024-03-23T13:49:28;100899.22;;;10.11;100.00
65760;BME280;52496;51.082;5.066;2024-03-23T13:51:59;100897.91;;;10.30;100.00
65760;BME280;52496;51.082;5.066;2024-03-23T13:54:30;100895.41;;;10.29;100.00
65760;BME280;52496;51.082;5.066;2024-03-23T13:57:00;100889.72;;;10.32;100.00
65760;BME280;52496;51.082;5.066;2024-03-23T13:59:31;100888.84;;;10.31;100.00
65760;BME280;52496;51.082;5.066;2024-03-23T14:02:01;100886.06;;;10.25;100.00
65760;BME280;52496;51.082;5.066;2024-03-23T14:04:32;100894.69;;;10.12;100.00
65760;BME280;52496;51.082;5.066;2024-03-23T14:07:02;100913.41;;;9.89;100.00
65760;BME280;52496;51.082;5.066;2024-03-23T14:09:33;100931.28;;;9.57;100.00
65760;BME280;52496;51.082;5.066;2024-03-23T14:12:03;100923.59;;;9.31;100.00
65760;BME280;52496;51.082;5.066;2024-03-23T14:14:34;100921.66;;;9.17;100.00